sensor_id;sensor_type;location;lat;lon;timestamp;pressure;altitude;pressure_sealevel;temperature;humidity
51239;BME280;38154;47.548;18.828;2022-11-03T00:00:09;99568.38;;;7.01;100.00
51239;BME280;38154;47.548;18.828;2022-11-03T00:02:35;99564.84;;;6.99;100.00
51239;BME280;38154;47.548;18.828;2022-11-03T00:05:01;99566.59;;;7.00;100.00
51239;BME280;38154;47.548;18.828;2022-11-03T00:07:47;99563.22;;;7.02;100.00
51239;BME280;38154;47.548;18.828;2022-11-03T00:10:13;99555.69;;;7.12;100.00
51239;BME280;38154;47.548;18.828;2022-11-03T00:12:38;99556.72;;;7.18;100.00
51239;BME280;38154;47.548;18.828;2022-11-03T00:15:04;99561.28;;;7.27;100.00
51239;BME280;38154;47.548;18.828;2022-11-03T00:17:30;99560.56;;;7.31;100.00
51239;BME280;38154;47.548;18.828;2022-11-03T00:19:56;99555.69;;;7.43;100.00
51239;BME280;38154;47.548;18.828;2022-11-03T00:22:22;99554.09;;;7.49;100.00
51239;BME280;38154;47.548;18.828;2022-11-03T00:24:48;99562.94;;;7.57;100.00
51239;BME280;38154;47.548;18.828;2022-11-03T00:27:14;99564.91;;;7.66;100.00
51239;BME280;38154;47.548;18.828;2022-11-03T00:29:40;99554.72;;;7.73;100.00
51239;BME280;38154;47.548;18.828;2022-11-03T00:32:05;99565.28;;;7.79;100.00
51239;BME280;38154;47.548;18.828;2022-11-03T00:34:31;99561.81;;;7.80;100.00
51239;BME280;38154;47.548;18.828;2022-11-03T00:36:57;99557.41;;;7.76;100.00
51239;BME280;38154;47.548;18.828;2022-11-03T00:39:23;99567.56;;;7.69;100.00
51239;BME280;38154;47.548;18.828;2022-11-03T00:41:49;99561.22;;;7.57;100.00
51239;BME280;38154;47.548;18.828;2022-11-03T00:44:15;99556.88;;;7.56;100.00
51239;BME280;38154;47.548;18.828;2022-11-03T00:46:40;99561.16;;;7.54;100.00
51239;BME280;38154;47.548;18.828;2022-11-03T00:49:06;99560.28;;;7.54;100.00
51239;BME280;38154;47.548;18.828;2022-11-03T00:51:33;99565.41;;;7.52;100.00
51239;BME280;38154;47.548;18.828;2022-11-03T00:54:03;99565.47;;;7.54;100.00
51239;BME280;38154;47.548;18.828;2022-11-03T00:56:37;99565.53;;;7.57;100.00
51239;BME280;38154;47.548;18.828;2022-11-03T00:59:05;99568.22;;;7.60;100.00
51239;BME280;38154;47.548;18.828;2022-11-03T01:01:39;99558.91;;;7.68;100.00
51239;BME280;38154;47.548;18.828;2022-11-03T01:04:05;99557.53;;;7.81;100.00
51239;BME280;38154;47.548;18.828;2022-11-03T01:06:52;99553.50;;;7.94;100.00
51239;BME280;38154;47.548;18.828;2022-11-03T01:12:06;99548.06;;;8.20;100.00
51239;BME280;38154;47.548;18.828;2022-11-03T01:17:03;99548.12;;;8.24;100.00
51239;BME280;38154;47.548;18.828;2022-11-03T01:19:29;99550.69;;;8.23;100.00
51239;BME280;38154;47.548;18.828;2022-11-03T01:21:55;99548.94;;;8.20;100.00
51239;BME280;38154;47.548;18.828;2022-11-03T01:24:21;99547.19;;;8.21;100.00
51239;BME280;38154;47.548;18.828;2022-11-03T01:26:47;99542.72;;;8.13;100.00
51239;BME280;38154;47.548;18.828;2022-11-03T01:29:13;99534.72;;;8.06;100.00
51239;BME280;38154;47.548;18.828;2022-11-03T01:31:39;99536.37;;;8.02;100.00
51239;BME280;38154;47.548;18.828;2022-11-03T01:34:05;99535.34;;;7.95;100.00
51239;BME280;38154;47.548;18.828;2022-11-03T01:36:31;99524.84;;;7.89;100.00
51239;BME280;38154;47.548;18.828;2022-11-03T01:38:57;99522.09;;;7.83;100.00
51239;BME280;38154;47.548;18.828;2022-11-03T01:41:26;99522.94;;;7.84;100.00
51239;BME280;38154;47.548;18.828;2022-11-03T01:49:29;99512.03;;;8.35;100.00
51239;BME280;38154;47.548;18.828;2022-11-03T01:52:02;99519.53;;;8.61;100.00
51239;BME280;38154;47.548;18.828;2022-11-03T01:54:30;99511.72;;;8.61;100.00
51239;BME280;38154;47.548;18.828;2022-11-03T01:56:59;99506.59;;;8.64;100.00
51239;BME280;38154;47.548;18.828;2022-11-03T01:59:25;99510.97;;;8.65;100.00
51239;BME280;38154;47.548;18.828;2022-11-03T02:01:52;99510.00;;;8.61;100.00
51239;BME280;38154;47.548;18.828;2022-11-03T02:04:26;99502.41;;;8.70;100.00
51239;BME280;38154;47.548;18.828;2022-11-03T02:07:23;99498.03;;;8.69;100.00
51239;BME280;38154;47.548;18.828;2022-11-03T02:09:47;99503.31;;;8.72;100.00
51239;BME280;38154;47.548;18.828;2022-11-03T02:12:13;99501.44;;;8.65;100.00
51239;BME280;38154;47.548;18.828;2022-11-03T02:14:44;99499.75;;;8.67;100.00
51239;BME280;38154;47.548;18.828;2022-11-03T02:17:15;99494.41;;;8.60;100.00
51239;BME280;38154;47.548;18.828;2022-11-03T02:19:56;99493.62;;;8.65;100.00
51239;BME280;38154;47.548;18.828;2022-11-03T02:22:31;99491.81;;;8.61;100.00
51239;BME280;38154;47.548;18.828;2022-11-03T02:27:41;99485.28;;;8.80;100.00
51239;BME280;38154;47.548;18.828;2022-11-03T02:30:08;99486.81;;;8.70;100.00
51239;BME280;38154;47.548;18.828;2022-11-03T02:32:45;99483.75;;;8.49;100.00
51239;BME280;38154;47.548;18.828;2022-11-03T02:35:20;99492.94;;;8.33;100.00
51239;BME280;38154;47.548;18.828;2022-11-03T02:37:50;99489.87;;;8.13;100.00
51239;BME280;38154;47.548;18.828;2022-11-03T02:40:33;99481.84;;;8.02;100.00
51239;BME280;38154;47.548;18.828;2022-11-03T02:43:01;99485.03;;;7.90;100.00
51239;BME280;38154;47.548;18.828;2022-11-03T02:45:29;99490.87;;;7.82;100.00
51239;BME280;38154;47.548;18.828;2022-11-03T02:47:58;99482.94;;;7.75;100.00
51239;BME280;38154;47.548;18.828;2022-11-03T02:50:30;99485.28;;;7.65;100.00
51239;BME280;38154;47.548;18.828;2022-11-03T02:52:56;99491.97;;;7.55;100.00
51239;BME280;38154;47.548;18.828;2022-11-03T03:00:56;99488.63;;;7.25;100.00
51239;BME280;38154;47.548;18.828;2022-11-03T03:03:46;99483.34;;;7.21;100.00
51239;BME280;38154;47.548;18.828;2022-11-03T03:06:38;99480.56;;;7.15;100.00
51239;BME280;38154;47.548;18.828;2022-11-03T03:09:10;99473.28;;;7.01;100.00
51239;BME280;38154;47.548;18.828;2022-11-03T03:11:40;99471.06;;;6.83;100.00
51239;BME280;38154;47.548;18.828;2022-11-03T03:14:13;99467.28;;;6.71;100.00
51239;BME280;38154;47.548;18.828;2022-11-03T03:17:00;99478.00;;;6.53;100.00
51239;BME280;38154;47.548;18.828;2022-11-03T03:19:40;99459.63;;;6.45;100.00
51239;BME280;38154;47.548;18.828;2022-11-03T03:22:27;99466.53;;;6.44;100.00
51239;BME280;38154;47.548;18.828;2022-11-03T03:27:32;99474.69;;;6.58;100.00
51239;BME280;38154;47.548;18.828;2022-11-03T03:30:04;99472.38;;;6.67;100.00
51239;BME280;38154;47.548;18.828;2022-11-03T03:32:35;99473.53;;;6.77;100.00
51239;BME280;38154;47.548;18.828;2022-11-03T03:35:05;99464.25;;;6.85;100.00
51239;BME280;38154;47.548;18.828;2022-11-03T03:37:34;99466.69;;;6.81;100.00
51239;BME280;38154;47.548;18.828;2022-11-03T03:40:04;99460.41;;;6.73;100.00
51239;BME280;38154;47.548;18.828;2022-11-03T03:42:34;99455.16;;;6.69;100.00
51239;BME280;38154;47.548;18.828;2022-11-03T03:45:01;99446.66;;;6.74;100.00
51239;BME280;38154;47.548;18.828;2022-11-03T03:47:30;99446.88;;;6.83;100.00
51239;BME280;38154;47.548;18.828;2022-11-03T03:49:57;99447.50;;;6.74;100.00
51239;BME280;38154;47.548;18.828;2022-11-03T03:52:23;99457.53;;;7.27;100.00
51239;BME280;38154;47.548;18.828;2022-11-03T03:54:50;99455.53;;;7.17;100.00
51239;BME280;38154;47.548;18.828;2022-11-03T03:57:19;99468.37;;;7.11;100.00
51239;BME280;38154;47.548;18.828;2022-11-03T03:59:46;99475.97;;;7.04;100.00
51239;BME280;38154;47.548;18.828;2022-11-03T04:02:12;99481.13;;;7.03;100.00
51239;BME280;38154;47.548;18.828;2022-11-03T04:04:38;99488.00;;;7.01;100.00
51239;BME280;38154;47.548;18.828;2022-11-03T04:07:04;99480.56;;;7.15;100.00
51239;BME280;38154;47.548;18.828;2022-11-03T04:09:49;99490.16;;;7.19;100.00
51239;BME280;38154;47.548;18.828;2022-11-03T04:12:15;99499.59;;;7.15;100.00
51239;BME280;38154;47.548;18.828;2022-11-03T04:14:59;99493.41;;;7.10;100.00
51239;BME280;38154;47.548;18.828;2022-11-03T04:17:46;99494.91;;;7.02;100.00
51239;BME280;38154;47.548;18.828;2022-11-03T04:20:31;99498.13;;;6.93;100.00
51239;BME280;38154;47.548;18.828;2022-11-03T04:23:17;99492.34;;;6.72;100.00
51239;BME280;38154;47.548;18.828;2022-11-03T04:25:53;99491.72;;;6.80;100.00
51239;BME280;38154;47.548;18.828;2022-11-03T04:28:20;99488.56;;;6.59;100.00
51239;BME280;38154;47.548;18.828;2022-11-03T04:30:46;99490.84;;;6.49;100.00
51239;BME280;38154;47.548;18.828;2022-11-03T04:33:17;99487.12;;;6.40;100.00
51239;BME280;38154;47.548;18.828;2022-11-03T04:35:45;99486.16;;;6.36;100.00
51239;BME280;38154;47.548;18.828;2022-11-03T04:40:38;99476.16;;;5.92;100.00
51239;BME280;38154;47.548;18.828;2022-11-03T04:43:10;99471.19;;;5.71;100.00
51239;BME280;38154;47.548;18.828;2022-11-03T04:45:37;99476.13;;;5.64;100.00
51239;BME280;38154;47.548;18.828;2022-11-03T04:48:11;99471.66;;;5.58;100.00
51239;BME280;38154;47.548;18.828;2022-11-03T04:50:38;99474.94;;;5.54;100.00
51239;BME280;38154;47.548;18.828;2022-11-03T04:53:09;99471.59;;;5.56;100.00
51239;BME280;38154;47.548;18.828;2022-11-03T04:55:35;99478.62;;;5.61;100.00
51239;BME280;38154;47.548;18.828;2022-11-03T04:58:09;99483.69;;;5.57;100.00
51239;BME280;38154;47.548;18.828;2022-11-03T05:00:38;99489.03;;;5.36;100.00
51239;BME280;38154;47.548;18.828;2022-11-03T05:03:04;99477.38;;;5.49;100.00
51239;BME280;38154;47.548;18.828;2022-11-03T05:05:30;99485.28;;;5.81;100.00
51239;BME280;38154;47.548;18.828;2022-11-03T05:07:56;99483.47;;;6.04;100.00
51239;BME280;38154;47.548;18.828;2022-11-03T05:10:24;99487.22;;;6.14;100.00
51239;BME280;38154;47.548;18.828;2022-11-03T05:12:50;99488.91;;;5.86;100.00
51239;BME280;38154;47.548;18.828;2022-11-03T05:15:40;99482.47;;;5.73;100.00
51239;BME280;38154;47.548;18.828;2022-11-03T05:18:24;99496.63;;;5.57;100.00
51239;BME280;38154;47.548;18.828;2022-11-03T05:21:10;99500.41;;;5.42;100.00
51239;BME280;38154;47.548;18.828;2022-11-03T05:23:39;99509.41;;;5.27;100.00
51239;BME280;38154;47.548;18.828;2022-11-03T05:26:11;99507.84;;;5.32;100.00
51239;BME280;38154;47.548;18.828;2022-11-03T05:28:41;99504.44;;;5.33;100.00
51239;BME280;38154;47.548;18.828;2022-11-03T05:31:33;99512.97;;;5.31;100.00
51239;BME280;38154;47.548;18.828;2022-11-03T05:39:49;99505.03;;;5.00;100.00
51239;BME280;38154;47.548;18.828;2022-11-03T05:42:25;99514.00;;;5.10;100.00
51239;BME280;38154;47.548;18.828;2022-11-03T05:44:52;99503.09;;;5.19;100.00
51239;BME280;38154;47.548;18.828;2022-11-03T05:47:26;99502.84;;;5.11;100.00
51239;BME280;38154;47.548;18.828;2022-11-03T05:50:19;99501.06;;;5.10;100.00
51239;BME280;38154;47.548;18.828;2022-11-03T05:52:48;99494.88;;;5.31;100.00
51239;BME280;38154;47.548;18.828;2022-11-03T05:55:27;99493.28;;;5.60;100.00
51239;BME280;38154;47.548;18.828;2022-11-03T05:57:57;99492.69;;;5.69;100.00
51239;BME280;38154;47.548;18.828;2022-11-03T06:00:27;99488.19;;;5.90;100.00
51239;BME280;38154;47.548;18.828;2022-11-03T06:02:53;99488.91;;;6.12;100.00
51239;BME280;38154;47.548;18.828;2022-11-03T06:05:22;99482.59;;;6.32;100.00
51239;BME280;38154;47.548;18.828;2022-11-03T06:07:49;99496.97;;;6.52;100.00
51239;BME280;38154;47.548;18.828;2022-11-03T06:10:40;99496.00;;;6.78;100.00
51239;BME280;38154;47.548;18.828;2022-11-03T06:13:15;99496.53;;;6.98;100.00
51239;BME280;38154;47.548;18.828;2022-11-03T06:15:43;99496.22;;;7.18;100.00
51239;BME280;38154;47.548;18.828;2022-11-03T06:18:14;99498.72;;;7.48;100.00
51239;BME280;38154;47.548;18.828;2022-11-03T06:20:42;99495.12;;;7.78;100.00
51239;BME280;38154;47.548;18.828;2022-11-03T06:23:14;99502.62;;;8.02;100.00
51239;BME280;38154;47.548;18.828;2022-11-03T06:25:41;99506.28;;;8.48;100.00
51239;BME280;38154;47.548;18.828;2022-11-03T06:28:33;99504.63;;;8.96;100.00
51239;BME280;38154;47.548;18.828;2022-11-03T06:30:59;99508.06;;;9.93;100.00
51239;BME280;38154;47.548;18.828;2022-11-03T06:33:32;99519.63;;;11.46;100.00
51239;BME280;38154;47.548;18.828;2022-11-03T06:36:02;99526.25;;;12.05;100.00
51239;BME280;38154;47.548;18.828;2022-11-03T06:38:33;99531.59;;;12.24;98.66
51239;BME280;38154;47.548;18.828;2022-11-03T06:40:59;99538.56;;;12.22;98.68
51239;BME280;38154;47.548;18.828;2022-11-03T06:43:38;99538.69;;;12.40;100.00
51239;BME280;38154;47.548;18.828;2022-11-03T06:46:14;99536.28;;;12.85;100.00
51239;BME280;38154;47.548;18.828;2022-11-03T06:48:43;99533.56;;;12.60;98.77
51239;BME280;38154;47.548;18.828;2022-11-03T06:51:28;99539.75;;;12.81;98.86
51239;BME280;38154;47.548;18.828;2022-11-03T06:53:58;99540.91;;;14.19;95.39
51239;BME280;38154;47.548;18.828;2022-11-03T06:56:28;99553.16;;;16.11;91.57
51239;BME280;38154;47.548;18.828;2022-11-03T06:58:55;99559.13;;;17.14;68.96
51239;BME280;38154;47.548;18.828;2022-11-03T07:01:24;99560.81;;;17.82;63.64
51239;BME280;38154;47.548;18.828;2022-11-03T07:03:55;99560.25;;;17.61;62.98
51239;BME280;38154;47.548;18.828;2022-11-03T07:06:24;99564.44;;;17.76;63.74
51239;BME280;38154;47.548;18.828;2022-11-03T07:08:58;99569.81;;;18.23;62.76
51239;BME280;38154;47.548;18.828;2022-11-03T07:11:26;99563.25;;;18.47;73.46
51239;BME280;38154;47.548;18.828;2022-11-03T07:13:56;99567.19;;;18.71;58.74
51239;BME280;38154;47.548;18.828;2022-11-03T07:16:34;99565.97;;;18.91;58.37
51239;BME280;38154;47.548;18.828;2022-11-03T07:19:23;99568.34;;;19.86;55.54
51239;BME280;38154;47.548;18.828;2022-11-03T07:21:53;99557.53;;;19.95;56.24
51239;BME280;38154;47.548;18.828;2022-11-03T07:24:40;99567.28;;;19.14;60.32
51239;BME280;38154;47.548;18.828;2022-11-03T07:27:15;99555.69;;;18.27;64.84
51239;BME280;38154;47.548;18.828;2022-11-03T07:29:45;99557.72;;;19.47;60.94
51239;BME280;38154;47.548;18.828;2022-11-03T07:32:17;99549.19;;;20.11;59.97
51239;BME280;38154;47.548;18.828;2022-11-03T07:34:44;99554.31;;;20.86;55.36
51239;BME280;38154;47.548;18.828;2022-11-03T07:37:17;99549.88;;;21.16;55.25
51239;BME280;38154;47.548;18.828;2022-11-03T07:39:44;99560.00;;;21.03;54.75
51239;BME280;38154;47.548;18.828;2022-11-03T07:42:14;99552.53;;;21.47;54.05
51239;BME280;38154;47.548;18.828;2022-11-03T07:44:42;99560.88;;;21.04;54.90
51239;BME280;38154;47.548;18.828;2022-11-03T07:47:18;99553.75;;;20.40;60.36
51239;BME280;38154;47.548;18.828;2022-11-03T07:49:45;99548.69;;;20.31;61.08
51239;BME280;38154;47.548;18.828;2022-11-03T07:52:15;99552.59;;;20.50;60.09
51239;BME280;38154;47.548;18.828;2022-11-03T07:54:43;99549.91;;;20.17;61.54
51239;BME280;38154;47.548;18.828;2022-11-03T07:57:13;99544.50;;;20.22;61.40
51239;BME280;38154;47.548;18.828;2022-11-03T07:59:41;99548.19;;;20.16;61.86
51239;BME280;38154;47.548;18.828;2022-11-03T08:04:43;99546.22;;;19.50;64.33
51239;BME280;38154;47.548;18.828;2022-11-03T08:07:08;99556.16;;;19.38;64.73
51239;BME280;38154;47.548;18.828;2022-11-03T08:09:34;99552.59;;;20.16;62.72
51239;BME280;38154;47.548;18.828;2022-11-03T08:12:00;99549.97;;;20.83;60.73
51239;BME280;38154;47.548;18.828;2022-11-03T08:14:26;99549.94;;;21.15;58.04
51239;BME280;38154;47.548;18.828;2022-11-03T08:16:52;99541.81;;;21.51;57.39
51239;BME280;38154;47.548;18.828;2022-11-03T08:19:18;99549.28;;;21.36;56.18
51239;BME280;38154;47.548;18.828;2022-11-03T08:21:44;99542.44;;;22.14;54.04
51239;BME280;38154;47.548;18.828;2022-11-03T08:24:10;99546.50;;;21.41;55.12
51239;BME280;38154;47.548;18.828;2022-11-03T08:26:36;99532.75;;;21.58;54.32
51239;BME280;38154;47.548;18.828;2022-11-03T08:29:02;99532.75;;;21.28;55.86
51239;BME280;38154;47.548;18.828;2022-11-03T08:31:28;99536.13;;;23.17;51.70
51239;BME280;38154;47.548;18.828;2022-11-03T08:33:53;99539.53;;;22.72;51.06
51239;BME280;38154;47.548;18.828;2022-11-03T08:36:19;99540.59;;;22.42;52.27
51239;BME280;38154;47.548;18.828;2022-11-03T08:38:45;99539.59;;;22.18;51.85
51239;BME280;38154;47.548;18.828;2022-11-03T08:41:11;99533.47;;;22.16;52.48
51239;BME280;38154;47.548;18.828;2022-11-03T08:43:37;99531.59;;;21.93;55.45
51239;BME280;38154;47.548;18.828;2022-11-03T08:46:03;99533.38;;;22.46;51.75
51239;BME280;38154;47.548;18.828;2022-11-03T08:48:29;99532.38;;;22.74;49.95
51239;BME280;38154;47.548;18.828;2022-11-03T08:50:55;99524.66;;;21.89;52.73
51239;BME280;38154;47.548;18.828;2022-11-03T08:53:22;99526.44;;;21.89;54.11
51239;BME280;38154;47.548;18.828;2022-11-03T08:55:49;99522.69;;;21.09;55.97
51239;BME280;38154;47.548;18.828;2022-11-03T08:58:15;99532.62;;;22.16;53.28
51239;BME280;38154;47.548;18.828;2022-11-03T09:00:41;99523.63;;;23.19;50.92
51239;BME280;38154;47.548;18.828;2022-11-03T09:03:07;99523.28;;;23.05;50.88
51239;BME280;38154;47.548;18.828;2022-11-03T09:05:33;99514.06;;;22.41;52.56
51239;BME280;38154;47.548;18.828;2022-11-03T09:07:59;99514.38;;;22.32;52.03
51239;BME280;38154;47.548;18.828;2022-11-03T09:10:25;99511.72;;;22.57;50.91
51239;BME280;38154;47.548;18.828;2022-11-03T09:12:52;99512.66;;;22.31;51.50
51239;BME280;38154;47.548;18.828;2022-11-03T09:15:18;99510.97;;;22.53;51.14
51239;BME280;38154;47.548;18.828;2022-11-03T09:17:43;99511.53;;;21.84;54.70
51239;BME280;38154;47.548;18.828;2022-11-03T09:20:10;99512.47;;;22.60;51.93
51239;BME280;38154;47.548;18.828;2022-11-03T09:22:36;99503.06;;;22.52;52.67
51239;BME280;38154;47.548;18.828;2022-11-03T09:25:02;99506.34;;;23.75;49.57
51239;BME280;38154;47.548;18.828;2022-11-03T09:27:28;99510.28;;;22.48;52.72
51239;BME280;38154;47.548;18.828;2022-11-03T09:29:53;99501.53;;;22.93;50.51
51239;BME280;38154;47.548;18.828;2022-11-03T09:32:19;99497.87;;;22.47;52.08
51239;BME280;38154;47.548;18.828;2022-11-03T09:34:45;99487.34;;;21.94;53.77
51239;BME280;38154;47.548;18.828;2022-11-03T09:37:11;99495.06;;;22.27;54.65
51239;BME280;38154;47.548;18.828;2022-11-03T09:39:37;99490.03;;;22.19;52.47
51239;BME280;38154;47.548;18.828;2022-11-03T09:42:03;99491.78;;;22.18;53.24
51239;BME280;38154;47.548;18.828;2022-11-03T09:44:34;99496.53;;;22.09;53.88
51239;BME280;38154;47.548;18.828;2022-11-03T09:47:02;99489.94;;;21.68;55.46
51239;BME280;38154;47.548;18.828;2022-11-03T09:49:32;99488.94;;;22.24;53.26
51239;BME280;38154;47.548;18.828;2022-11-03T09:52:01;99477.22;;;21.78;53.66
51239;BME280;38154;47.548;18.828;2022-11-03T09:54:28;99474.63;;;20.59;58.08
51239;BME280;38154;47.548;18.828;2022-11-03T09:56:59;99472.41;;;19.78;61.10
51239;BME280;38154;47.548;18.828;2022-11-03T09:59:30;99458.16;;;19.07;65.33
51239;BME280;38154;47.548;18.828;2022-11-03T10:01:56;99462.88;;;18.93;66.98
51239;BME280;38154;47.548;18.828;2022-11-03T10:04:26;99459.91;;;18.64;68.94
51239;BME280;38154;47.548;18.828;2022-11-03T10:06:56;99454.44;;;18.30;69.13
51239;BME280;38154;47.548;18.828;2022-11-03T10:09:23;99439.16;;;18.01;72.14
51239;BME280;38154;47.548;18.828;2022-11-03T10:11:52;99436.53;;;17.99;73.09
51239;BME280;38154;47.548;18.828;2022-11-03T10:14:20;99425.38;;;17.83;72.43
51239;BME280;38154;47.548;18.828;2022-11-03T10:16:56;99414.53;;;16.91;78.92
51239;BME280;38154;47.548;18.828;2022-11-03T10:19:25;99422.44;;;16.91;80.62
51239;BME280;38154;47.548;18.828;2022-11-03T10:21:51;99411.22;;;16.74;81.61
51239;BME280;38154;47.548;18.828;2022-11-03T10:24:17;99407.88;;;17.26;78.69
51239;BME280;38154;47.548;18.828;2022-11-03T10:26:47;99412.03;;;17.39;77.46
51239;BME280;38154;47.548;18.828;2022-11-03T10:29:21;99405.59;;;17.57;76.97
51239;BME280;38154;47.548;18.828;2022-11-03T10:31:50;99399.59;;;17.48;77.41
51239;BME280;38154;47.548;18.828;2022-11-03T10:34:33;99402.25;;;17.46;77.45
51239;BME280;38154;47.548;18.828;2022-11-03T10:37:22;99388.12;;;16.94;81.27
51239;BME280;38154;47.548;18.828;2022-11-03T10:39:50;99384.44;;;16.42;83.71
51239;BME280;38154;47.548;18.828;2022-11-03T10:42:22;99370.31;;;16.49;85.04
51239;BME280;38154;47.548;18.828;2022-11-03T10:44:51;99380.59;;;15.93;88.45
51239;BME280;38154;47.548;18.828;2022-11-03T10:47:30;99368.78;;;15.43;92.56
51239;BME280;38154;47.548;18.828;2022-11-03T10:49:57;99373.81;;;15.69;92.33
51239;BME280;38154;47.548;18.828;2022-11-03T10:52:25;99358.69;;;16.64;86.61
51239;BME280;38154;47.548;18.828;2022-11-03T10:54:53;99351.59;;;17.29;82.23
51239;BME280;38154;47.548;18.828;2022-11-03T10:57:21;99355.38;;;17.64;79.05
51239;BME280;38154;47.548;18.828;2022-11-03T10:59:49;99347.63;;;18.03;77.65
51239;BME280;38154;47.548;18.828;2022-11-03T11:02:28;99349.00;;;18.63;72.82
51239;BME280;38154;47.548;18.828;2022-11-03T11:05:00;99346.81;;;18.82;71.39
51239;BME280;38154;47.548;18.828;2022-11-03T11:07:35;99343.75;;;19.00;71.33
51239;BME280;38154;47.548;18.828;2022-11-03T11:10:05;99341.06;;;18.24;74.15
51239;BME280;38154;47.548;18.828;2022-11-03T11:12:32;99331.06;;;16.31;84.23
51239;BME280;38154;47.548;18.828;2022-11-03T11:14:59;99332.91;;;15.40;92.28
51239;BME280;38154;47.548;18.828;2022-11-03T11:17:44;99323.75;;;14.82;96.99
51239;BME280;38154;47.548;18.828;2022-11-03T11:22:48;99320.47;;;14.43;100.00
51239;BME280;38154;47.548;18.828;2022-11-03T11:25:14;99320.50;;;14.39;100.00
51239;BME280;38154;47.548;18.828;2022-11-03T11:37:41;99312.78;;;14.03;100.00
51239;BME280;38154;47.548;18.828;2022-11-03T11:48:30;99293.66;;;13.73;100.00
51239;BME280;38154;47.548;18.828;2022-11-03T11:50:57;99292.00;;;13.29;100.00
51239;BME280;38154;47.548;18.828;2022-11-03T11:53:24;99294.63;;;13.29;100.00
51239;BME280;38154;47.548;18.828;2022-11-03T11:55:54;99297.25;;;13.46;100.00
51239;BME280;38154;47.548;18.828;2022-11-03T11:58:30;99287.56;;;13.75;100.00
51239;BME280;38154;47.548;18.828;2022-11-03T12:01:03;99295.47;;;13.58;100.00
51239;BME280;38154;47.548;18.828;2022-11-03T12:03:40;99293.75;;;13.47;100.00
51239;BME280;38154;47.548;18.828;2022-11-03T12:06:11;99295.41;;;13.76;100.00
51239;BME280;38154;47.548;18.828;2022-11-03T12:08:37;99285.91;;;13.47;100.00
51239;BME280;38154;47.548;18.828;2022-11-03T12:11:04;99278.00;;;13.57;100.00
51239;BME280;38154;47.548;18.828;2022-11-03T12:13:48;99277.09;;;13.61;100.00
51239;BME280;38154;47.548;18.828;2022-11-03T12:16:35;99265.81;;;13.51;100.00
51239;BME280;38154;47.548;18.828;2022-11-03T12:19:33;99266.69;;;13.17;100.00
51239;BME280;38154;47.548;18.828;2022-11-03T12:22:00;99263.22;;;13.05;100.00
51239;BME280;38154;47.548;18.828;2022-11-03T12:26:58;99257.13;;;13.04;100.00
51239;BME280;38154;47.548;18.828;2022-11-03T12:29:24;99249.28;;;12.86;100.00
51239;BME280;38154;47.548;18.828;2022-11-03T12:31:50;99249.25;;;12.61;100.00
51239;BME280;38154;47.548;18.828;2022-11-03T12:34:17;99241.41;;;12.78;100.00
51239;BME280;38154;47.548;18.828;2022-11-03T12:36:43;99238.81;;;12.86;100.00
51239;BME280;38154;47.548;18.828;2022-11-03T12:39:10;99244.03;;;12.59;100.00
51239;BME280;38154;47.548;18.828;2022-11-03T12:41:36;99233.53;;;12.39;100.00
51239;BME280;38154;47.548;18.828;2022-11-03T12:44:02;99236.19;;;12.50;100.00
51239;BME280;38154;47.548;18.828;2022-11-03T12:46:28;99233.56;;;12.59;100.00
51239;BME280;38154;47.548;18.828;2022-11-03T12:48:54;99231.81;;;12.69;100.00
51239;BME280;38154;47.548;18.828;2022-11-03T12:51:21;99242.28;;;13.03;100.00
51239;BME280;38154;47.548;18.828;2022-11-03T12:53:47;99234.38;;;13.25;100.00
51239;BME280;38154;47.548;18.828;2022-11-03T12:56:14;99227.44;;;13.21;100.00
51239;BME280;38154;47.548;18.828;2022-11-03T12:58:41;99221.34;;;12.89;100.00
51239;BME280;38154;47.548;18.828;2022-11-03T13:01:07;99220.47;;;12.76;100.00
51239;BME280;38154;47.548;18.828;2022-11-03T13:03:34;99223.97;;;12.44;100.00
51239;BME280;38154;47.548;18.828;2022-11-03T13:06:02;99216.97;;;12.22;100.00
51239;BME280;38154;47.548;18.828;2022-11-03T13:08:30;99218.69;;;12.15;100.00
51239;BME280;38154;47.548;18.828;2022-11-03T13:10:56;99208.19;;;12.04;100.00
51239;BME280;38154;47.548;18.828;2022-11-03T13:13:22;99213.47;;;12.15;100.00
51239;BME280;38154;47.548;18.828;2022-11-03T13:15:48;99203.88;;;12.03;100.00
51239;BME280;38154;47.548;18.828;2022-11-03T13:18:14;99214.31;;;12.00;100.00
51239;BME280;38154;47.548;18.828;2022-11-03T13:20:40;99216.03;;;12.01;100.00
51239;BME280;38154;47.548;18.828;2022-11-03T13:23:06;99208.13;;;11.89;100.00
51239;BME280;38154;47.548;18.828;2022-11-03T13:25:32;99195.00;;;11.70;100.00
51239;BME280;38154;47.548;18.828;2022-11-03T13:27:57;99189.81;;;11.84;100.00
51239;BME280;38154;47.548;18.828;2022-11-03T13:30:25;99183.75;;;11.84;100.00
51239;BME280;38154;47.548;18.828;2022-11-03T13:32:51;99184.66;;;11.94;100.00
51239;BME280;38154;47.548;18.828;2022-11-03T13:35:18;99175.97;;;11.92;100.00
51239;BME280;38154;47.548;18.828;2022-11-03T13:37:44;99182.94;;;11.99;100.00
51239;BME280;38154;47.548;18.828;2022-11-03T13:40:11;99182.06;;;11.94;100.00
51239;BME280;38154;47.548;18.828;2022-11-03T13:42:37;99171.53;;;11.83;100.00
51239;BME280;38154;47.548;18.828;2022-11-03T13:45:04;99175.00;;;11.79;100.00
51239;BME280;38154;47.548;18.828;2022-11-03T13:47:32;99169.78;;;11.77;100.00
51239;BME280;38154;47.548;18.828;2022-11-03T13:49:58;99164.59;;;11.86;100.00
51239;BME280;38154;47.548;18.828;2022-11-03T13:52:26;99169.81;;;11.82;100.00
51239;BME280;38154;47.548;18.828;2022-11-03T13:54:52;99165.38;;;11.64;100.00
51239;BME280;38154;47.548;18.828;2022-11-03T13:57:19;99164.44;;;11.49;100.00